sensor_id;sensor_type;location;lat;lon;timestamp;P1;durP1;ratioP1;P2;durP2;ratioP2
830;SDS011;397;50.564;7.272;2022-10-16T00:01:19;7.10;;;2.97;;
830;SDS011;397;50.564;7.272;2022-10-16T00:03:48;4.97;;;3.37;;
830;SDS011;397;50.564;7.272;2022-10-16T00:06:18;3.27;;;2.60;;
830;SDS011;397;50.564;7.272;2022-10-16T00:08:47;3.57;;;2.80;;
830;SDS011;397;50.564;7.272;2022-10-16T00:11:19;2.97;;;2.50;;
830;SDS011;397;50.564;7.272;2022-10-16T00:16:40;2.67;;;2.47;;
830;SDS011;397;50.564;7.272;2022-10-16T00:19:09;4.77;;;2.70;;
830;SDS011;397;50.564;7.272;2022-10-16T00:21:38;3.07;;;2.50;;
830;SDS011;397;50.564;7.272;2022-10-16T00:24:06;3.53;;;2.57;;
830;SDS011;397;50.564;7.272;2022-10-16T00:26:36;6.20;;;3.03;;
830;SDS011;397;50.564;7.272;2022-10-16T00:29:04;6.80;;;3.10;;
830;SDS011;397;50.564;7.272;2022-10-16T00:31:32;5.90;;;3.03;;
830;SDS011;397;50.564;7.272;2022-10-16T00:34:00;5.17;;;2.90;;
830;SDS011;397;50.564;7.272;2022-10-16T00:36:27;4.20;;;2.30;;
830;SDS011;397;50.564;7.272;2022-10-16T00:38:56;4.30;;;2.00;;
830;SDS011;397;50.564;7.272;2022-10-16T00:41:26;5.17;;;1.93;;
830;SDS011;397;50.564;7.272;2022-10-16T00:43:56;3.40;;;1.93;;
830;SDS011;397;50.564;7.272;2022-10-16T00:46:26;3.83;;;2.70;;
830;SDS011;397;50.564;7.272;2022-10-16T00:51:45;3.47;;;1.70;;
830;SDS011;397;50.564;7.272;2022-10-16T00:54:32;4.50;;;1.70;;
830;SDS011;397;50.564;7.272;2022-10-16T00:56:53;3.20;;;2.10;;
830;SDS011;397;50.564;7.272;2022-10-16T00:59:29;3.43;;;2.20;;
830;SDS011;397;50.564;7.272;2022-10-16T01:01:54;2.90;;;2.17;;
830;SDS011;397;50.564;7.272;2022-10-16T01:04:23;5.83;;;2.10;;
830;SDS011;397;50.564;7.272;2022-10-16T01:06:54;2.60;;;2.20;;
830;SDS011;397;50.564;7.272;2022-10-16T01:09:36;4.83;;;2.00;;
830;SDS011;397;50.564;7.272;2022-10-16T01:12:19;6.00;;;1.97;;
830;SDS011;397;50.564;7.272;2022-10-16T01:15:08;3.10;;;2.10;;
830;SDS011;397;50.564;7.272;2022-10-16T01:17:48;3.80;;;2.27;;
830;SDS011;397;50.564;7.272;2022-10-16T01:20:35;3.10;;;2.13;;
830;SDS011;397;50.564;7.272;2022-10-16T01:26:02;4.13;;;2.40;;
830;SDS011;397;50.564;7.272;2022-10-16T01:28:38;3.73;;;2.53;;
830;SDS011;397;50.564;7.272;2022-10-16T01:31:05;5.90;;;2.80;;
830;SDS011;397;50.564;7.272;2022-10-16T01:33:38;5.10;;;2.90;;
830;SDS011;397;50.564;7.272;2022-10-16T01:36:06;9.80;;;2.90;;
830;SDS011;397;50.564;7.272;2022-10-16T01:38:52;8.43;;;2.47;;
830;SDS011;397;50.564;7.272;2022-10-16T01:41:27;8.30;;;2.33;;
830;SDS011;397;50.564;7.272;2022-10-16T01:43:56;2.80;;;2.40;;
830;SDS011;397;50.564;7.272;2022-10-16T01:46:23;4.23;;;2.07;;
830;SDS011;397;50.564;7.272;2022-10-16T01:48:52;2.50;;;2.00;;
830;SDS011;397;50.564;7.272;2022-10-16T01:51:21;2.50;;;1.70;;
830;SDS011;397;50.564;7.272;2022-10-16T01:53:52;10.30;;;2.30;;
830;SDS011;397;50.564;7.272;2022-10-16T01:56:21;3.40;;;2.33;;
830;SDS011;397;50.564;7.272;2022-10-16T02:01:39;4.27;;;2.63;;
830;SDS011;397;50.564;7.272;2022-10-16T02:04:13;3.43;;;2.90;;
830;SDS011;397;50.564;7.272;2022-10-16T02:06:42;4.57;;;3.23;;
830;SDS011;397;50.564;7.272;2022-10-16T02:09:10;4.73;;;2.87;;
830;SDS011;397;50.564;7.272;2022-10-16T02:11:37;2.93;;;2.33;;
830;SDS011;397;50.564;7.272;2022-10-16T02:14:06;3.20;;;2.70;;
830;SDS011;397;50.564;7.272;2022-10-16T02:16:38;3.03;;;2.00;;
830;SDS011;397;50.564;7.272;2022-10-16T02:19:08;4.33;;;2.60;;
830;SDS011;397;50.564;7.272;2022-10-16T02:21:44;3.20;;;2.87;;
830;SDS011;397;50.564;7.272;2022-10-16T02:24:21;5.93;;;3.40;;
830;SDS011;397;50.564;7.272;2022-10-16T02:27:02;4.70;;;2.70;;
830;SDS011;397;50.564;7.272;2022-10-16T02:29:41;5.30;;;2.50;;
830;SDS011;397;50.564;7.272;2022-10-16T02:32:11;3.10;;;2.10;;
830;SDS011;397;50.564;7.272;2022-10-16T02:34:41;4.70;;;3.10;;
830;SDS011;397;50.564;7.272;2022-10-16T02:37:10;2.70;;;2.07;;
830;SDS011;397;50.564;7.272;2022-10-16T02:39:39;3.00;;;2.63;;
830;SDS011;397;50.564;7.272;2022-10-16T02:42:14;2.97;;;2.37;;
830;SDS011;397;50.564;7.272;2022-10-16T02:44:43;4.47;;;2.97;;
830;SDS011;397;50.564;7.272;2022-10-16T02:47:11;2.63;;;2.43;;
830;SDS011;397;50.564;7.272;2022-10-16T02:49:39;4.67;;;3.23;;
830;SDS011;397;50.564;7.272;2022-10-16T02:52:06;4.73;;;2.50;;
830;SDS011;397;50.564;7.272;2022-10-16T02:54:34;4.13;;;2.37;;
830;SDS011;397;50.564;7.272;2022-10-16T02:57:01;6.30;;;2.30;;
830;SDS011;397;50.564;7.272;2022-10-16T02:59:29;4.90;;;2.17;;
830;SDS011;397;50.564;7.272;2022-10-16T03:01:56;3.13;;;2.33;;
830;SDS011;397;50.564;7.272;2022-10-16T03:04:24;3.20;;;2.53;;
830;SDS011;397;50.564;7.272;2022-10-16T03:06:51;2.70;;;2.17;;
830;SDS011;397;50.564;7.272;2022-10-16T03:09:19;2.60;;;2.17;;
830;SDS011;397;50.564;7.272;2022-10-16T03:11:46;2.20;;;1.77;;
830;SDS011;397;50.564;7.272;2022-10-16T03:14:14;3.50;;;2.10;;
830;SDS011;397;50.564;7.272;2022-10-16T03:16:41;2.20;;;1.60;;
830;SDS011;397;50.564;7.272;2022-10-16T03:19:09;15.23;;;2.70;;
830;SDS011;397;50.564;7.272;2022-10-16T03:21:36;3.30;;;2.10;;
830;SDS011;397;50.564;7.272;2022-10-16T03:24:04;2.80;;;2.10;;
830;SDS011;397;50.564;7.272;2022-10-16T03:26:32;4.63;;;2.30;;
830;SDS011;397;50.564;7.272;2022-10-16T03:28:59;2.53;;;2.13;;
830;SDS011;397;50.564;7.272;2022-10-16T03:31:29;3.50;;;2.67;;
830;SDS011;397;50.564;7.272;2022-10-16T03:33:57;4.00;;;2.37;;
830;SDS011;397;50.564;7.272;2022-10-16T03:36:24;5.27;;;4.47;;
830;SDS011;397;50.564;7.272;2022-10-16T03:38:52;4.47;;;2.47;;
830;SDS011;397;50.564;7.272;2022-10-16T03:41:19;6.00;;;2.47;;
830;SDS011;397;50.564;7.272;2022-10-16T03:43:46;2.97;;;2.50;;
830;SDS011;397;50.564;7.272;2022-10-16T03:46:14;3.70;;;2.60;;
830;SDS011;397;50.564;7.272;2022-10-16T03:48:41;4.00;;;2.77;;
830;SDS011;397;50.564;7.272;2022-10-16T03:51:09;2.87;;;2.50;;
830;SDS011;397;50.564;7.272;2022-10-16T03:53:36;4.13;;;2.60;;
830;SDS011;397;50.564;7.272;2022-10-16T03:56:04;4.40;;;2.97;;
830;SDS011;397;50.564;7.272;2022-10-16T03:58:32;3.33;;;2.40;;
830;SDS011;397;50.564;7.272;2022-10-16T04:01:00;3.50;;;2.37;;
830;SDS011;397;50.564;7.272;2022-10-16T04:03:27;4.27;;;3.10;;
830;SDS011;397;50.564;7.272;2022-10-16T04:05:56;2.80;;;2.60;;
830;SDS011;397;50.564;7.272;2022-10-16T04:08:24;4.03;;;2.57;;
830;SDS011;397;50.564;7.272;2022-10-16T04:10:52;3.80;;;2.37;;
830;SDS011;397;50.564;7.272;2022-10-16T04:13:19;3.77;;;2.37;;
830;SDS011;397;50.564;7.272;2022-10-16T04:15:48;5.73;;;2.57;;
830;SDS011;397;50.564;7.272;2022-10-16T04:18:16;6.63;;;3.00;;
830;SDS011;397;50.564;7.272;2022-10-16T04:20:43;3.27;;;2.97;;
830;SDS011;397;50.564;7.272;2022-10-16T04:23:11;5.90;;;3.37;;
830;SDS011;397;50.564;7.272;2022-10-16T04:25:38;3.93;;;3.03;;
830;SDS011;397;50.564;7.272;2022-10-16T04:28:06;4.20;;;3.03;;
830;SDS011;397;50.564;7.272;2022-10-16T04:30:33;3.33;;;2.90;;
830;SDS011;397;50.564;7.272;2022-10-16T04:33:01;4.87;;;3.20;;
830;SDS011;397;50.564;7.272;2022-10-16T04:35:28;3.83;;;2.90;;
830;SDS011;397;50.564;7.272;2022-10-16T04:37:59;4.27;;;3.20;;
830;SDS011;397;50.564;7.272;2022-10-16T04:40:26;5.47;;;3.60;;
830;SDS011;397;50.564;7.272;2022-10-16T04:42:54;3.80;;;2.77;;
830;SDS011;397;50.564;7.272;2022-10-16T04:45:21;3.43;;;3.00;;
830;SDS011;397;50.564;7.272;2022-10-16T04:47:48;4.03;;;2.90;;
830;SDS011;397;50.564;7.272;2022-10-16T04:50:16;3.53;;;2.70;;
830;SDS011;397;50.564;7.272;2022-10-16T04:52:43;6.03;;;2.60;;
830;SDS011;397;50.564;7.272;2022-10-16T04:55:11;3.50;;;3.13;;
830;SDS011;397;50.564;7.272;2022-10-16T04:57:38;3.60;;;2.27;;
830;SDS011;397;50.564;7.272;2022-10-16T05:00:07;3.30;;;2.37;;
830;SDS011;397;50.564;7.272;2022-10-16T05:02:35;5.80;;;2.63;;
830;SDS011;397;50.564;7.272;2022-10-16T05:05:02;2.80;;;2.10;;
830;SDS011;397;50.564;7.272;2022-10-16T05:07:31;3.50;;;2.20;;
830;SDS011;397;50.564;7.272;2022-10-16T05:09:58;4.00;;;2.60;;
830;SDS011;397;50.564;7.272;2022-10-16T05:12:26;2.10;;;1.80;;
830;SDS011;397;50.564;7.272;2022-10-16T05:14:53;3.33;;;2.20;;
830;SDS011;397;50.564;7.272;2022-10-16T05:17:22;5.10;;;1.90;;
830;SDS011;397;50.564;7.272;2022-10-16T05:19:50;2.37;;;2.00;;
830;SDS011;397;50.564;7.272;2022-10-16T05:22:18;3.60;;;1.73;;
830;SDS011;397;50.564;7.272;2022-10-16T05:24:45;2.83;;;1.80;;
830;SDS011;397;50.564;7.272;2022-10-16T05:27:13;3.10;;;2.30;;
830;SDS011;397;50.564;7.272;2022-10-16T05:29:42;2.63;;;1.70;;
830;SDS011;397;50.564;7.272;2022-10-16T05:32:10;2.10;;;1.50;;
830;SDS011;397;50.564;7.272;2022-10-16T05:34:38;3.20;;;2.50;;
830;SDS011;397;50.564;7.272;2022-10-16T05:37:05;3.93;;;1.87;;
830;SDS011;397;50.564;7.272;2022-10-16T05:39:33;2.47;;;1.80;;
830;SDS011;397;50.564;7.272;2022-10-16T05:42:02;2.60;;;1.63;;
830;SDS011;397;50.564;7.272;2022-10-16T05:44:31;2.10;;;1.40;;
830;SDS011;397;50.564;7.272;2022-10-16T05:46:58;2.23;;;1.60;;
830;SDS011;397;50.564;7.272;2022-10-16T05:49:26;4.53;;;2.43;;
830;SDS011;397;50.564;7.272;2022-10-16T05:51:54;3.47;;;1.73;;
830;SDS011;397;50.564;7.272;2022-10-16T05:54:21;4.13;;;1.80;;
830;SDS011;397;50.564;7.272;2022-10-16T05:56:48;2.90;;;1.60;;
830;SDS011;397;50.564;7.272;2022-10-16T05:59:16;2.90;;;2.30;;
830;SDS011;397;50.564;7.272;2022-10-16T06:01:43;3.40;;;2.00;;
830;SDS011;397;50.564;7.272;2022-10-16T06:04:11;2.30;;;1.40;;
830;SDS011;397;50.564;7.272;2022-10-16T06:06:38;2.63;;;1.70;;
830;SDS011;397;50.564;7.272;2022-10-16T06:09:06;2.43;;;1.60;;
830;SDS011;397;50.564;7.272;2022-10-16T06:11:34;4.20;;;1.93;;
830;SDS011;397;50.564;7.272;2022-10-16T06:14:02;3.33;;;2.60;;
830;SDS011;397;50.564;7.272;2022-10-16T06:16:32;2.53;;;2.17;;
830;SDS011;397;50.564;7.272;2022-10-16T06:19:01;4.70;;;1.77;;
830;SDS011;397;50.564;7.272;2022-10-16T06:21:31;3.63;;;2.37;;
830;SDS011;397;50.564;7.272;2022-10-16T06:23:59;4.70;;;2.40;;
830;SDS011;397;50.564;7.272;2022-10-16T06:26:27;3.50;;;2.60;;
830;SDS011;397;50.564;7.272;2022-10-16T06:28:57;6.97;;;2.47;;
830;SDS011;397;50.564;7.272;2022-10-16T06:31:26;3.00;;;1.50;;
830;SDS011;397;50.564;7.272;2022-10-16T06:33:56;3.43;;;2.27;;
830;SDS011;397;50.564;7.272;2022-10-16T06:36:24;2.00;;;1.40;;
830;SDS011;397;50.564;7.272;2022-10-16T06:38:52;3.83;;;2.00;;
830;SDS011;397;50.564;7.272;2022-10-16T06:41:20;4.93;;;1.27;;
830;SDS011;397;50.564;7.272;2022-10-16T06:43:49;3.07;;;2.20;;
830;SDS011;397;50.564;7.272;2022-10-16T06:46:18;3.30;;;1.73;;
830;SDS011;397;50.564;7.272;2022-10-16T06:48:48;4.13;;;2.17;;
830;SDS011;397;50.564;7.272;2022-10-16T06:51:17;4.23;;;1.93;;
830;SDS011;397;50.564;7.272;2022-10-16T06:53:46;2.90;;;1.43;;
830;SDS011;397;50.564;7.272;2022-10-16T06:56:16;2.63;;;1.80;;
830;SDS011;397;50.564;7.272;2022-10-16T06:58:46;3.30;;;1.50;;
830;SDS011;397;50.564;7.272;2022-10-16T07:01:14;6.47;;;2.30;;
830;SDS011;397;50.564;7.272;2022-10-16T07:03:43;2.80;;;1.30;;
830;SDS011;397;50.564;7.272;2022-10-16T07:06:13;3.53;;;1.77;;
830;SDS011;397;50.564;7.272;2022-10-16T07:08:43;3.93;;;1.90;;
830;SDS011;397;50.564;7.272;2022-10-16T07:11:13;2.87;;;1.50;;
830;SDS011;397;50.564;7.272;2022-10-16T07:13:43;2.50;;;1.50;;
830;SDS011;397;50.564;7.272;2022-10-16T07:16:16;4.00;;;1.87;;
830;SDS011;397;50.564;7.272;2022-10-16T07:18:45;2.43;;;2.00;;
830;SDS011;397;50.564;7.272;2022-10-16T07:21:15;2.13;;;1.67;;
830;SDS011;397;50.564;7.272;2022-10-16T07:24:10;2.73;;;1.57;;
830;SDS011;397;50.564;7.272;2022-10-16T07:26:18;2.90;;;1.40;;
830;SDS011;397;50.564;7.272;2022-10-16T07:28:45;2.77;;;1.60;;
830;SDS011;397;50.564;7.272;2022-10-16T07:31:13;3.10;;;1.50;;
830;SDS011;397;50.564;7.272;2022-10-16T07:33:42;2.00;;;1.03;;
830;SDS011;397;50.564;7.272;2022-10-16T07:36:11;2.60;;;1.50;;
830;SDS011;397;50.564;7.272;2022-10-16T07:38:39;2.83;;;1.00;;
830;SDS011;397;50.564;7.272;2022-10-16T07:41:09;2.60;;;1.40;;
830;SDS011;397;50.564;7.272;2022-10-16T07:43:38;2.27;;;1.30;;
830;SDS011;397;50.564;7.272;2022-10-16T07:46:05;2.70;;;1.50;;
830;SDS011;397;50.564;7.272;2022-10-16T07:48:33;2.07;;;1.20;;
830;SDS011;397;50.564;7.272;2022-10-16T07:51:02;3.60;;;1.20;;
830;SDS011;397;50.564;7.272;2022-10-16T07:53:31;2.70;;;1.40;;
830;SDS011;397;50.564;7.272;2022-10-16T07:56:00;1.90;;;1.20;;
830;SDS011;397;50.564;7.272;2022-10-16T07:58:29;2.37;;;1.07;;
830;SDS011;397;50.564;7.272;2022-10-16T08:00:57;1.90;;;1.17;;
830;SDS011;397;50.564;7.272;2022-10-16T08:03:25;2.00;;;0.90;;
830;SDS011;397;50.564;7.272;2022-10-16T08:05:52;2.07;;;0.87;;
830;SDS011;397;50.564;7.272;2022-10-16T08:08:20;2.90;;;1.30;;
830;SDS011;397;50.564;7.272;2022-10-16T08:10:47;3.60;;;1.27;;
830;SDS011;397;50.564;7.272;2022-10-16T08:13:15;2.10;;;1.10;;
830;SDS011;397;50.564;7.272;2022-10-16T08:15:43;2.77;;;1.20;;
830;SDS011;397;50.564;7.272;2022-10-16T08:18:12;3.27;;;1.23;;
830;SDS011;397;50.564;7.272;2022-10-16T08:20:41;1.70;;;0.70;;
830;SDS011;397;50.564;7.272;2022-10-16T08:23:09;5.97;;;1.37;;
830;SDS011;397;50.564;7.272;2022-10-16T08:25:39;2.70;;;1.30;;
830;SDS011;397;50.564;7.272;2022-10-16T08:28:08;3.70;;;1.40;;
830;SDS011;397;50.564;7.272;2022-10-16T08:30:37;1.93;;;1.27;;
830;SDS011;397;50.564;7.272;2022-10-16T08:33:05;2.07;;;1.13;;
830;SDS011;397;50.564;7.272;2022-10-16T08:35:32;2.23;;;0.93;;
830;SDS011;397;50.564;7.272;2022-10-16T08:38:02;4.97;;;1.00;;
830;SDS011;397;50.564;7.272;2022-10-16T08:40:31;2.00;;;0.97;;
830;SDS011;397;50.564;7.272;2022-10-16T08:50:55;5.10;;;1.20;;
830;SDS011;397;50.564;7.272;2022-10-16T08:53:41;8.93;;;1.70;;
830;SDS011;397;50.564;7.272;2022-10-16T08:56:09;2.23;;;1.23;;
830;SDS011;397;50.564;7.272;2022-10-16T08:58:36;2.50;;;1.50;;
830;SDS011;397;50.564;7.272;2022-10-16T09:01:04;2.23;;;1.27;;
830;SDS011;397;50.564;7.272;2022-10-16T09:06:17;4.03;;;1.10;;
830;SDS011;397;50.564;7.272;2022-10-16T09:17:24;2.47;;;0.90;;
830;SDS011;397;50.564;7.272;2022-10-16T09:22:41;3.90;;;2.23;;
830;SDS011;397;50.564;7.272;2022-10-16T09:25:13;2.30;;;1.33;;
830;SDS011;397;50.564;7.272;2022-10-16T09:27:44;2.50;;;1.20;;
830;SDS011;397;50.564;7.272;2022-10-16T09:30:14;2.47;;;1.30;;
830;SDS011;397;50.564;7.272;2022-10-16T09:32:44;2.00;;;1.20;;
830;SDS011;397;50.564;7.272;2022-10-16T09:35:16;3.10;;;1.20;;
830;SDS011;397;50.564;7.272;2022-10-16T09:37:45;2.37;;;1.03;;
830;SDS011;397;50.564;7.272;2022-10-16T09:40:28;3.93;;;1.30;;
830;SDS011;397;50.564;7.272;2022-10-16T09:43:06;2.10;;;0.80;;
830;SDS011;397;50.564;7.272;2022-10-16T09:45:59;2.73;;;1.30;;
830;SDS011;397;50.564;7.272;2022-10-16T09:48:37;1.90;;;0.83;;
830;SDS011;397;50.564;7.272;2022-10-16T09:51:16;2.77;;;1.10;;
830;SDS011;397;50.564;7.272;2022-10-16T09:53:45;2.30;;;1.03;;
830;SDS011;397;50.564;7.272;2022-10-16T09:56:29;4.57;;;0.90;;
830;SDS011;397;50.564;7.272;2022-10-16T09:59:00;1.90;;;0.87;;
830;SDS011;397;50.564;7.272;2022-10-16T10:01:31;2.43;;;1.23;;
830;SDS011;397;50.564;7.272;2022-10-16T10:04:00;2.63;;;1.40;;
830;SDS011;397;50.564;7.272;2022-10-16T10:06:29;1.73;;;0.90;;
830;SDS011;397;50.564;7.272;2022-10-16T10:09:13;1.87;;;1.03;;
830;SDS011;397;50.564;7.272;2022-10-16T10:11:55;3.20;;;1.00;;
830;SDS011;397;50.564;7.272;2022-10-16T10:14:32;1.80;;;0.90;;
830;SDS011;397;50.564;7.272;2022-10-16T10:19:40;2.20;;;1.00;;
830;SDS011;397;50.564;7.272;2022-10-16T10:22:29;3.33;;;1.00;;
830;SDS011;397;50.564;7.272;2022-10-16T10:24:59;2.10;;;1.03;;
830;SDS011;397;50.564;7.272;2022-10-16T10:30:35;2.20;;;1.13;;
830;SDS011;397;50.564;7.272;2022-10-16T10:36:07;2.17;;;1.17;;
830;SDS011;397;50.564;7.272;2022-10-16T10:38:39;2.90;;;1.27;;
830;SDS011;397;50.564;7.272;2022-10-16T10:41:18;3.73;;;1.30;;
830;SDS011;397;50.564;7.272;2022-10-16T10:44:16;2.60;;;0.93;;
830;SDS011;397;50.564;7.272;2022-10-16T10:52:25;1.90;;;0.83;;
830;SDS011;397;50.564;7.272;2022-10-16T10:54:53;1.80;;;0.80;;
830;SDS011;397;50.564;7.272;2022-10-16T10:57:25;3.17;;;1.00;;
830;SDS011;397;50.564;7.272;2022-10-16T11:05:31;1.93;;;1.17;;
830;SDS011;397;50.564;7.272;2022-10-16T11:07:59;3.30;;;1.20;;
830;SDS011;397;50.564;7.272;2022-10-16T11:10:42;2.73;;;0.97;;
830;SDS011;397;50.564;7.272;2022-10-16T11:13:20;2.23;;;0.90;;
830;SDS011;397;50.564;7.272;2022-10-16T11:15:48;3.20;;;1.07;;
830;SDS011;397;50.564;7.272;2022-10-16T11:18:27;2.03;;;1.00;;
830;SDS011;397;50.564;7.272;2022-10-16T11:21:00;6.27;;;1.07;;
830;SDS011;397;50.564;7.272;2022-10-16T11:23:42;3.73;;;1.47;;
830;SDS011;397;50.564;7.272;2022-10-16T11:26:16;3.43;;;1.17;;
830;SDS011;397;50.564;7.272;2022-10-16T11:28:54;2.10;;;1.07;;
830;SDS011;397;50.564;7.272;2022-10-16T11:31:28;2.43;;;1.27;;
830;SDS011;397;50.564;7.272;2022-10-16T11:36:58;2.17;;;1.20;;
830;SDS011;397;50.564;7.272;2022-10-16T11:39:27;1.90;;;0.93;;
830;SDS011;397;50.564;7.272;2022-10-16T11:41:59;2.50;;;1.10;;
830;SDS011;397;50.564;7.272;2022-10-16T11:50:10;2.10;;;1.30;;
830;SDS011;397;50.564;7.272;2022-10-16T11:52:44;1.70;;;0.97;;
830;SDS011;397;50.564;7.272;2022-10-16T11:55:20;2.53;;;1.17;;
830;SDS011;397;50.564;7.272;2022-10-16T11:57:53;2.13;;;1.10;;
830;SDS011;397;50.564;7.272;2022-10-16T12:00:34;2.57;;;1.17;;
830;SDS011;397;50.564;7.272;2022-10-16T12:03:13;3.37;;;1.40;;
830;SDS011;397;50.564;7.272;2022-10-16T12:06:02;2.73;;;1.00;;
830;SDS011;397;50.564;7.272;2022-10-16T12:08:32;1.90;;;0.90;;
830;SDS011;397;50.564;7.272;2022-10-16T12:11:08;2.50;;;1.30;;
830;SDS011;397;50.564;7.272;2022-10-16T12:13:38;3.30;;;1.13;;
830;SDS011;397;50.564;7.272;2022-10-16T12:18:46;3.23;;;0.90;;
830;SDS011;397;50.564;7.272;2022-10-16T12:21:16;3.90;;;1.07;;
830;SDS011;397;50.564;7.272;2022-10-16T12:23:51;2.47;;;1.13;;
830;SDS011;397;50.564;7.272;2022-10-16T12:26:26;4.50;;;1.00;;
830;SDS011;397;50.564;7.272;2022-10-16T12:31:58;2.20;;;1.30;;
830;SDS011;397;50.564;7.272;2022-10-16T12:34:27;4.03;;;2.13;;
830;SDS011;397;50.564;7.272;2022-10-16T12:37:13;3.23;;;1.53;;
830;SDS011;397;50.564;7.272;2022-10-16T12:39:41;6.40;;;2.30;;
830;SDS011;397;50.564;7.272;2022-10-16T12:42:23;2.70;;;1.40;;
830;SDS011;397;50.564;7.272;2022-10-16T12:44:52;2.47;;;1.33;;
830;SDS011;397;50.564;7.272;2022-10-16T12:50:01;2.33;;;1.47;;
830;SDS011;397;50.564;7.272;2022-10-16T12:52:39;2.57;;;1.30;;
830;SDS011;397;50.564;7.272;2022-10-16T12:55:03;5.50;;;1.10;;
830;SDS011;397;50.564;7.272;2022-10-16T12:57:39;3.27;;;1.30;;
830;SDS011;397;50.564;7.272;2022-10-16T13:00:24;2.30;;;1.37;;
830;SDS011;397;50.564;7.272;2022-10-16T13:06:06;3.30;;;1.00;;
830;SDS011;397;50.564;7.272;2022-10-16T13:08:50;3.20;;;1.33;;
830;SDS011;397;50.564;7.272;2022-10-16T13:11:57;2.30;;;0.90;;
830;SDS011;397;50.564;7.272;2022-10-16T13:20:30;2.83;;;1.50;;
830;SDS011;397;50.564;7.272;2022-10-16T13:23:59;2.73;;;1.00;;
830;SDS011;397;50.564;7.272;2022-10-16T13:25:53;2.63;;;0.90;;
830;SDS011;397;50.564;7.272;2022-10-16T13:28:37;1.90;;;0.80;;
830;SDS011;397;50.564;7.272;2022-10-16T13:31:10;2.50;;;0.97;;
830;SDS011;397;50.564;7.272;2022-10-16T13:33:46;2.40;;;1.00;;
830;SDS011;397;50.564;7.272;2022-10-16T13:36:34;2.73;;;0.90;;
830;SDS011;397;50.564;7.272;2022-10-16T13:39:09;2.50;;;1.00;;
830;SDS011;397;50.564;7.272;2022-10-16T13:41:45;2.40;;;0.90;;
830;SDS011;397;50.564;7.272;2022-10-16T13:44:15;3.70;;;0.93;;
830;SDS011;397;50.564;7.272;2022-10-16T13:46:46;3.20;;;1.23;;
830;SDS011;397;50.564;7.272;2022-10-16T13:49:16;3.30;;;0.90;;
830;SDS011;397;50.564;7.272;2022-10-16T13:52:04;2.47;;;1.30;;
830;SDS011;397;50.564;7.272;2022-10-16T13:54:22;3.50;;;1.80;;
830;SDS011;397;50.564;7.272;2022-10-16T13:56:50;3.70;;;1.33;;
830;SDS011;397;50.564;7.272;2022-10-16T13:59:32;4.93;;;2.30;;
830;SDS011;397;50.564;7.272;2022-10-16T14:02:00;3.53;;;2.07;;
830;SDS011;397;50.564;7.272;2022-10-16T14:04:32;3.83;;;2.10;;
830;SDS011;397;50.564;7.272;2022-10-16T14:07:00;3.40;;;1.80;;
830;SDS011;397;50.564;7.272;2022-10-16T14:09:28;2.37;;;1.37;;
830;SDS011;397;50.564;7.272;2022-10-16T14:11:58;2.03;;;1.13;;
830;SDS011;397;50.564;7.272;2022-10-16T14:14:35;2.27;;;1.37;;
830;SDS011;397;50.564;7.272;2022-10-16T14:17:02;2.87;;;1.13;;
830;SDS011;397;50.564;7.272;2022-10-16T14:19:30;2.40;;;1.00;;
830;SDS011;397;50.564;7.272;2022-10-16T14:21:58;2.20;;;1.20;;
830;SDS011;397;50.564;7.272;2022-10-16T14:24:32;6.07;;;1.20;;
830;SDS011;397;50.564;7.272;2022-10-16T14:27:01;2.10;;;0.80;;
830;SDS011;397;50.564;7.272;2022-10-16T14:29:30;2.37;;;0.90;;
830;SDS011;397;50.564;7.272;2022-10-16T14:31:58;2.97;;;1.00;;
830;SDS011;397;50.564;7.272;2022-10-16T14:34:34;2.13;;;0.80;;
830;SDS011;397;50.564;7.272;2022-10-16T14:37:00;2.00;;;0.70;;
830;SDS011;397;50.564;7.272;2022-10-16T14:39:31;2.57;;;0.83;;
830;SDS011;397;50.564;7.272;2022-10-16T14:41:59;2.43;;;1.10;;
830;SDS011;397;50.564;7.272;2022-10-16T14:44:31;2.40;;;1.23;;
830;SDS011;397;50.564;7.272;2022-10-16T14:47:12;2.47;;;1.13;;
830;SDS011;397;50.564;7.272;2022-10-16T14:49:41;1.90;;;1.10;;
830;SDS011;397;50.564;7.272;2022-10-16T14:52:12;2.40;;;1.40;;
830;SDS011;397;50.564;7.272;2022-10-16T14:54:40;2.50;;;1.07;;
830;SDS011;397;50.564;7.272;2022-10-16T14:57:22;2.70;;;1.00;;
830;SDS011;397;50.564;7.272;2022-10-16T14:59:51;2.27;;;0.90;;
830;SDS011;397;50.564;7.272;2022-10-16T15:02:31;2.77;;;1.30;;
830;SDS011;397;50.564;7.272;2022-10-16T15:05:14;2.80;;;1.30;;
830;SDS011;397;50.564;7.272;2022-10-16T15:07:43;2.43;;;0.97;;
830;SDS011;397;50.564;7.272;2022-10-16T15:10:16;2.00;;;1.10;;
830;SDS011;397;50.564;7.272;2022-10-16T15:12:40;2.50;;;1.07;;
830;SDS011;397;50.564;7.272;2022-10-16T15:17:56;2.00;;;0.90;;
830;SDS011;397;50.564;7.272;2022-10-16T15:20:31;2.00;;;0.87;;
830;SDS011;397;50.564;7.272;2022-10-16T15:22:57;2.10;;;1.10;;
830;SDS011;397;50.564;7.272;2022-10-16T15:25:30;2.63;;;0.90;;
830;SDS011;397;50.564;7.272;2022-10-16T15:28:01;2.63;;;0.70;;
830;SDS011;397;50.564;7.272;2022-10-16T15:30:30;3.73;;;1.20;;
830;SDS011;397;50.564;7.272;2022-10-16T15:32:58;1.80;;;0.80;;
830;SDS011;397;50.564;7.272;2022-10-16T15:35:26;2.77;;;1.00;;
830;SDS011;397;50.564;7.272;2022-10-16T15:37:53;2.60;;;1.00;;
830;SDS011;397;50.564;7.272;2022-10-16T15:40:21;2.20;;;1.27;;
830;SDS011;397;50.564;7.272;2022-10-16T15:42:49;2.37;;;1.30;;
830;SDS011;397;50.564;7.272;2022-10-16T15:45:17;6.43;;;2.23;;
830;SDS011;397;50.564;7.272;2022-10-16T15:47:45;2.97;;;1.97;;
830;SDS011;397;50.564;7.272;2022-10-16T15:50:14;3.90;;;1.37;;
830;SDS011;397;50.564;7.272;2022-10-16T15:52:42;3.57;;;1.93;;
830;SDS011;397;50.564;7.272;2022-10-16T15:55:11;3.33;;;1.80;;
830;SDS011;397;50.564;7.272;2022-10-16T15:57:40;2.63;;;1.63;;
830;SDS011;397;50.564;7.272;2022-10-16T16:00:09;2.93;;;1.60;;
830;SDS011;397;50.564;7.272;2022-10-16T16:02:40;3.47;;;1.50;;
830;SDS011;397;50.564;7.272;2022-10-16T16:05:09;4.00;;;1.30;;
830;SDS011;397;50.564;7.272;2022-10-16T16:07:38;2.80;;;1.10;;
830;SDS011;397;50.564;7.272;2022-10-16T16:10:07;2.70;;;1.43;;
830;SDS011;397;50.564;7.272;2022-10-16T16:12:37;2.07;;;1.10;;
830;SDS011;397;50.564;7.272;2022-10-16T16:15:06;2.30;;;1.40;;
830;SDS011;397;50.564;7.272;2022-10-16T16:17:35;2.57;;;1.50;;
830;SDS011;397;50.564;7.272;2022-10-16T16:20:03;3.10;;;1.40;;
830;SDS011;397;50.564;7.272;2022-10-16T16:22:31;3.87;;;1.20;;
830;SDS011;397;50.564;7.272;2022-10-16T16:25:00;2.13;;;1.00;;
830;SDS011;397;50.564;7.272;2022-10-16T16:27:29;2.57;;;1.40;;
830;SDS011;397;50.564;7.272;2022-10-16T16:29:58;2.30;;;1.70;;
830;SDS011;397;50.564;7.272;2022-10-16T16:32:26;2.70;;;1.30;;
830;SDS011;397;50.564;7.272;2022-10-16T16:34:53;2.73;;;1.53;;
830;SDS011;397;50.564;7.272;2022-10-16T16:37:23;2.27;;;1.40;;
830;SDS011;397;50.564;7.272;2022-10-16T16:39:50;4.20;;;1.30;;
830;SDS011;397;50.564;7.272;2022-10-16T16:42:19;2.67;;;1.60;;
830;SDS011;397;50.564;7.272;2022-10-16T16:44:49;2.77;;;1.60;;
830;SDS011;397;50.564;7.272;2022-10-16T16:47:17;3.37;;;1.57;;
830;SDS011;397;50.564;7.272;2022-10-16T16:49:45;2.43;;;1.67;;
830;SDS011;397;50.564;7.272;2022-10-16T16:52:12;2.90;;;1.83;;
830;SDS011;397;50.564;7.272;2022-10-16T16:57:20;4.20;;;1.87;;
830;SDS011;397;50.564;7.272;2022-10-16T16:59:50;2.80;;;1.50;;
830;SDS011;397;50.564;7.272;2022-10-16T17:02:17;3.67;;;2.40;;
830;SDS011;397;50.564;7.272;2022-10-16T17:04:45;5.33;;;2.93;;
830;SDS011;397;50.564;7.272;2022-10-16T17:07:12;3.90;;;2.87;;
830;SDS011;397;50.564;7.272;2022-10-16T17:09:40;4.63;;;2.20;;
830;SDS011;397;50.564;7.272;2022-10-16T17:12:07;3.17;;;1.70;;
830;SDS011;397;50.564;7.272;2022-10-16T17:14:35;4.53;;;2.10;;
830;SDS011;397;50.564;7.272;2022-10-16T17:17:02;3.00;;;1.90;;
830;SDS011;397;50.564;7.272;2022-10-16T17:19:31;2.23;;;1.60;;
830;SDS011;397;50.564;7.272;2022-10-16T17:22:00;7.43;;;1.73;;
830;SDS011;397;50.564;7.272;2022-10-16T17:24:27;4.70;;;1.80;;
830;SDS011;397;50.564;7.272;2022-10-16T17:26:55;2.50;;;1.53;;
830;SDS011;397;50.564;7.272;2022-10-16T17:29:22;2.47;;;1.43;;
830;SDS011;397;50.564;7.272;2022-10-16T17:31:50;4.53;;;2.67;;